Time;durP1;ratioP1;P1;durP2;ratioP2;P2;SDS_P1;SDS_P2;PMS_P1;PMS_P2;Temp;Humidity;BMP_temperature;BMP_pressure;BME280_temperature;BME280_humidity;BME280_pressure;Samples;Min_cycle;Max_cycle;Signal;HPM_P1;HPM_P2
2022/07/22 00:00:35;;;;;;;;;;;15.20;99.90;;;;;;5077930;28;20007;-69
2022/07/22 00:03:01;;;;;;;;;;;15.20;99.90;;;;;;5074875;28;20011;-72
2022/07/22 00:05:28;;;;;;;;;;;15.10;99.90;;;;;;5072440;28;19928;-70
2022/07/22 00:07:56;;;;;;;;;;;15.10;99.90;;;;;;5084787;28;19979;-70
2022/07/22 00:10:23;;;;;;;;;;;15.10;99.90;;;;;;5085080;28;19975;-70
2022/07/22 00:12:50;;;;;;;;;;;15.10;99.90;;;;;;5089542;28;20056;-70
2022/07/22 00:15:16;;;;;;;;;;;15.10;99.90;;;;;;5071697;28;20395;-70
2022/07/22 00:17:43;;;;;;;;;;;15.00;99.90;;;;;;5086813;28;19924;-70
2022/07/22 00:20:10;;;;;;;;;;;14.90;99.90;;;;;;5071381;28;20028;-70
2022/07/22 00:22:37;;;;;;;;;;;14.90;99.90;;;;;;5072059;28;20256;-70
2022/07/22 00:25:05;;;;;;;;;;;14.90;99.90;;;;;;5071815;28;20298;-68
2022/07/22 00:27:32;;;;;;;;;;;14.90;99.90;;;;;;5074329;28;19932;-69
2022/07/22 00:29:59;;;;;;;;;;;14.90;99.90;;;;;;5088242;28;20027;-69
2022/07/22 00:32:25;;;;;;;;;;;14.80;99.90;;;;;;5079803;28;20011;-69
2022/07/22 00:34:52;;;;;;;;;;;14.80;99.90;;;;;;5071722;28;19924;-70
2022/07/22 00:37:19;;;;;;;;;;;14.70;99.90;;;;;;5072158;28;20272;-70
2022/07/22 00:39:47;;;;;;;;;;;14.70;99.90;;;;;;5072886;28;19964;-70
2022/07/22 00:42:15;;;;;;;;;;;14.60;99.90;;;;;;5074967;28;19924;-70
2022/07/22 00:44:42;;;;;;;;;;;14.60;99.90;;;;;;5076190;28;19967;-70
2022/07/22 00:47:09;;;;;;;;;;;14.50;99.90;;;;;;5071148;28;19967;-71
2022/07/22 00:49:36;;;;;;;;;;;14.50;99.90;;;;;;5080119;28;19924;-70
2022/07/22 00:52:04;;;;;;;;;;;14.40;99.90;;;;;;5091623;28;20007;-70
2022/07/22 00:54:31;;;;;;;;;;;14.40;99.90;;;;;;5083559;28;19946;-70
2022/07/22 00:56:57;;;;;;;;;;;14.40;99.90;;;;;;5092587;28;19928;-70
2022/07/22 00:59:25;;;;;;;;;;;14.40;99.90;;;;;;5092772;28;20019;-69
2022/07/22 01:01:52;;;;;;;;;;;14.30;99.90;;;;;;5083959;28;19963;-70
2022/07/22 01:04:19;;;;;;;;;;;14.30;99.90;;;;;;5086912;28;20874;-70
2022/07/22 01:06:46;;;;;;;;;;;14.30;99.90;;;;;;5074941;28;20384;-69
2022/07/22 01:09:13;;;;;;;;;;;14.30;99.90;;;;;;5091005;28;19966;-69
2022/07/22 01:11:40;;;;;;;;;;;14.20;99.90;;;;;;5084109;28;20015;-70
2022/07/22 01:14:07;;;;;;;;;;;14.20;99.90;;;;;;5080168;28;20019;-70
2022/07/22 01:16:36;;;;;;;;;;;14.20;99.90;;;;;;5075460;28;19924;-69
2022/07/22 01:19:02;;;;;;;;;;;14.20;99.90;;;;;;5077246;28;20015;-69
2022/07/22 01:21:30;;;;;;;;;;;14.20;99.90;;;;;;5074794;28;19929;-70
2022/07/22 01:23:57;;;;;;;;;;;14.30;99.90;;;;;;5078974;28;20512;-69
2022/07/22 01:26:24;;;;;;;;;;;14.10;99.90;;;;;;5074449;28;20007;-69
2022/07/22 01:28:51;;;;;;;;;;;14.10;99.90;;;;;;5080915;28;20028;-69
2022/07/22 01:31:17;;;;;;;;;;;14.00;99.90;;;;;;5074467;28;20019;-70
2022/07/22 01:33:44;;;;;;;;;;;14.00;99.90;;;;;;5079832;28;20018;-69
2022/07/22 01:36:11;;;;;;;;;;;14.00;99.90;;;;;;5074782;28;19931;-69
2022/07/22 01:38:39;;;;;;;;;;;14.00;99.90;;;;;;5074931;28;20018;-69
2022/07/22 01:41:06;;;;;;;;;;;13.90;99.90;;;;;;5076574;28;20442;-68
2022/07/22 01:43:33;;;;;;;;;;;14.00;99.90;;;;;;5079597;28;20019;-69
2022/07/22 01:45:59;;;;;;;;;;;13.90;99.90;;;;;;5074061;28;20047;-69
2022/07/22 01:48:26;;;;;;;;;;;13.90;99.90;;;;;;5072691;28;19946;-70
2022/07/22 01:50:53;;;;;;;;;;;13.80;99.90;;;;;;5086248;28;19959;-70
2022/07/22 01:53:20;;;;;;;;;;;13.90;99.90;;;;;;5079333;28;19980;-69
2022/07/22 01:55:48;;;;;;;;;;;13.80;99.90;;;;;;5073184;28;19952;-69
2022/07/22 01:58:14;;;;;;;;;;;13.80;99.90;;;;;;5081971;28;19978;-69
2022/07/22 02:00:41;;;;;;;;;;;13.80;99.90;;;;;;5086495;28;19963;-69
2022/07/22 02:03:10;;;;;;;;;;;13.80;99.90;;;;;;5080838;28;20382;-69
2022/07/22 02:05:37;;;;;;;;;;;13.70;99.90;;;;;;5076126;28;19938;-69
2022/07/22 02:08:04;;;;;;;;;;;13.70;99.90;;;;;;5080326;28;20310;-70
2022/07/22 02:10:31;;;;;;;;;;;13.80;99.90;;;;;;5075730;28;19924;-70
2022/07/22 02:12:59;;;;;;;;;;;13.70;99.90;;;;;;5072225;28;19998;-70
2022/07/22 02:15:26;;;;;;;;;;;13.70;99.90;;;;;;5074111;28;19932;-70
2022/07/22 02:17:53;;;;;;;;;;;13.80;99.90;;;;;;5073981;28;19932;-69
2022/07/22 02:20:19;;;;;;;;;;;13.80;99.90;;;;;;5073405;28;19924;-69
2022/07/22 02:22:46;;;;;;;;;;;13.70;99.90;;;;;;5077690;28;19923;-69
2022/07/22 02:25:13;;;;;;;;;;;13.70;99.90;;;;;;5084959;28;20364;-70
2022/07/22 02:27:41;;;;;;;;;;;13.70;99.90;;;;;;5078090;28;20027;-68
2022/07/22 02:30:10;;;;;;;;;;;13.60;99.90;;;;;;5073171;28;20021;-70
2022/07/22 02:32:36;;;;;;;;;;;13.60;99.90;;;;;;5075354;28;19925;-70
2022/07/22 02:35:03;;;;;;;;;;;13.60;99.90;;;;;;5079828;28;19925;-69
2022/07/22 02:37:30;;;;;;;;;;;13.60;99.90;;;;;;5083053;28;19932;-69
2022/07/22 02:39:57;;;;;;;;;;;13.50;99.90;;;;;;5072970;28;19924;-69
2022/07/22 02:42:23;;;;;;;;;;;13.50;99.90;;;;;;5071553;28;19978;-69
2022/07/22 02:44:50;;;;;;;;;;;13.50;99.90;;;;;;5081441;28;20008;-69
2022/07/22 02:47:18;;;;;;;;;;;13.50;99.90;;;;;;5072824;28;20007;-69
2022/07/22 02:49:45;;;;;;;;;;;13.50;99.90;;;;;;5073346;28;19975;-70
2022/07/22 02:52:11;;;;;;;;;;;13.40;99.90;;;;;;5072761;28;20004;-70
2022/07/22 02:54:38;;;;;;;;;;;13.40;99.90;;;;;;5073695;28;20023;-70
2022/07/22 02:57:05;;;;;;;;;;;13.40;99.90;;;;;;5082732;28;19938;-70
2022/07/22 02:59:31;;;;;;;;;;;13.40;99.90;;;;;;5081853;28;19952;-70
2022/07/22 03:01:58;;;;;;;;;;;13.40;99.90;;;;;;5073793;28;20020;-70
2022/07/22 03:04:26;;;;;;;;;;;13.30;99.90;;;;;;5082130;28;19931;-70
2022/07/22 03:06:53;;;;;;;;;;;13.20;99.90;;;;;;5085035;28;20003;-70
2022/07/22 03:09:20;;;;;;;;;;;13.20;99.90;;;;;;5082968;28;19967;-70
2022/07/22 03:11:46;;;;;;;;;;;13.20;99.90;;;;;;5077750;28;20298;-71
2022/07/22 03:14:13;;;;;;;;;;;13.20;99.90;;;;;;5083768;28;19968;-71
2022/07/22 03:16:40;;;;;;;;;;;13.20;99.90;;;;;;5072490;28;20338;-70
2022/07/22 03:19:06;;;;;;;;;;;13.10;99.90;;;;;;5081075;28;19924;-71
2022/07/22 03:21:34;;;;;;;;;;;13.20;99.90;;;;;;5072114;28;19930;-70
2022/07/22 03:24:01;;;;;;;;;;;13.10;99.90;;;;;;5080249;28;19932;-70
2022/07/22 03:26:28;;;;;;;;;;;13.00;99.90;;;;;;5076035;28;20007;-70
2022/07/22 03:28:54;;;;;;;;;;;13.00;99.90;;;;;;5072960;28;20070;-70
2022/07/22 03:31:21;;;;;;;;;;;13.00;99.90;;;;;;5072028;28;19999;-69
2022/07/22 03:33:48;;;;;;;;;;;13.10;99.90;;;;;;5082550;28;20395;-69
2022/07/22 03:36:15;;;;;;;;;;;13.10;99.90;;;;;;5080536;28;19972;-69
2022/07/22 03:38:43;;;;;;;;;;;13.10;99.90;;;;;;5081891;28;19924;-70
2022/07/22 03:41:09;;;;;;;;;;;13.20;99.90;;;;;;5072323;28;19971;-70
2022/07/22 03:43:36;;;;;;;;;;;13.10;99.90;;;;;;5082991;28;20442;-70
2022/07/22 03:46:03;;;;;;;;;;;13.10;99.90;;;;;;5092930;28;19924;-69
2022/07/22 03:48:29;;;;;;;;;;;13.00;99.90;;;;;;5081598;28;20136;-69
2022/07/22 03:50:56;;;;;;;;;;;13.00;99.90;;;;;;5075313;28;20031;-70
2022/07/22 03:53:23;;;;;;;;;;;13.00;99.90;;;;;;5077468;28;20023;-70
2022/07/22 03:55:51;;;;;;;;;;;13.00;99.90;;;;;;5071595;28;20501;-70
2022/07/22 03:58:18;;;;;;;;;;;13.00;99.90;;;;;;5083963;28;20040;-70
2022/07/22 04:00:45;;;;;;;;;;;13.00;99.90;;;;;;5071681;28;19931;-69
2022/07/22 04:03:11;;;;;;;;;;;12.90;99.90;;;;;;5078118;28;19924;-69
2022/07/22 04:05:38;;;;;;;;;;;12.90;99.90;;;;;;5077384;28;19975;-69
2022/07/22 04:08:05;;;;;;;;;;;12.90;99.90;;;;;;5077383;28;20007;-69
2022/07/22 04:10:32;;;;;;;;;;;13.00;99.90;;;;;;5082102;28;20441;-69
2022/07/22 04:12:59;;;;;;;;;;;13.00;99.90;;;;;;5077513;28;19925;-70
2022/07/22 04:15:26;;;;;;;;;;;13.10;99.90;;;;;;5073424;28;19931;-70
2022/07/22 04:17:53;;;;;;;;;;;13.10;99.90;;;;;;5075814;28;19931;-70
2022/07/22 04:20:20;;;;;;;;;;;13.10;99.90;;;;;;5079529;28;20023;-70
2022/07/22 04:22:46;;;;;;;;;;;13.20;99.90;;;;;;5074914;28;19969;-70
2022/07/22 04:25:14;;;;;;;;;;;13.20;99.90;;;;;;5090182;28;19928;-70
2022/07/22 04:27:40;;;;;;;;;;;13.30;99.90;;;;;;5084626;28;19932;-70
2022/07/22 04:30:09;;;;;;;;;;;13.20;99.90;;;;;;5081263;28;19924;-70
2022/07/22 04:32:36;;;;;;;;;;;13.40;99.90;;;;;;5072933;28;19924;-69
2022/07/22 04:35:03;;;;;;;;;;;13.50;99.90;;;;;;5081063;28;19970;-69
2022/07/22 04:37:29;;;;;;;;;;;13.60;99.90;;;;;;5084246;28;20047;-70
2022/07/22 04:39:56;;;;;;;;;;;13.50;99.90;;;;;;5072134;28;20011;-69
2022/07/22 04:42:23;;;;;;;;;;;13.50;99.90;;;;;;5071067;28;19925;-70
2022/07/22 04:44:49;;;;;;;;;;;13.60;99.90;;;;;;5073911;28;20342;-70
2022/07/22 04:47:17;;;;;;;;;;;13.70;99.90;;;;;;5070967;28;20019;-70
2022/07/22 04:49:44;;;;;;;;;;;13.80;99.90;;;;;;5085853;28;20077;-70
2022/07/22 04:52:11;;;;;;;;;;;13.90;99.90;;;;;;5070393;28;19978;-70
2022/07/22 04:54:37;;;;;;;;;;;14.00;99.90;;;;;;5075021;28;20010;-69
2022/07/22 04:57:04;;;;;;;;;;;14.10;99.90;;;;;;5072896;28;19960;-70
2022/07/22 04:59:31;;;;;;;;;;;14.20;99.90;;;;;;5073236;28;20019;-70
2022/07/22 05:01:57;;;;;;;;;;;14.30;99.90;;;;;;5071326;28;19928;-69
2022/07/22 05:04:25;;;;;;;;;;;14.40;99.90;;;;;;5074364;28;20023;-69
2022/07/22 05:06:52;;;;;;;;;;;14.50;99.90;;;;;;5070489;28;19968;-70
2022/07/22 05:09:19;;;;;;;;;;;14.50;99.90;;;;;;5078554;28;19946;-69
2022/07/22 05:11:45;;;;;;;;;;;14.70;99.90;;;;;;5071714;28;19964;-70
2022/07/22 05:14:12;;;;;;;;;;;14.80;99.90;;;;;;5081964;28;20281;-69
2022/07/22 05:16:39;;;;;;;;;;;14.90;99.90;;;;;;5070148;28;19925;-70
2022/07/22 05:19:06;;;;;;;;;;;15.00;99.90;;;;;;5085863;28;20009;-69
2022/07/22 05:21:34;;;;;;;;;;;15.10;99.90;;;;;;5071480;28;19976;-70
2022/07/22 05:24:01;;;;;;;;;;;15.20;99.90;;;;;;5083504;28;20433;-69
2022/07/22 05:26:29;;;;;;;;;;;15.30;99.90;;;;;;5076052;28;20021;-68
2022/07/22 05:28:56;;;;;;;;;;;15.40;99.90;;;;;;5078958;28;19925;-69
2022/07/22 05:31:23;;;;;;;;;;;15.40;99.90;;;;;;5070261;28;20014;-69
2022/07/22 05:33:50;;;;;;;;;;;15.40;99.90;;;;;;5083363;28;19969;-66
2022/07/22 05:36:16;;;;;;;;;;;15.50;99.90;;;;;;5075009;28;19968;-67
2022/07/22 05:38:44;;;;;;;;;;;15.70;99.90;;;;;;5077402;28;19931;-66
2022/07/22 05:41:11;;;;;;;;;;;15.80;99.90;;;;;;5073226;28;20029;-66
2022/07/22 05:43:38;;;;;;;;;;;16.00;99.90;;;;;;5085022;28;20018;-66
2022/07/22 05:46:05;;;;;;;;;;;16.10;99.90;;;;;;5088304;28;19931;-66
2022/07/22 05:48:31;;;;;;;;;;;16.30;99.90;;;;;;5085847;28;20448;-66
2022/07/22 05:50:58;;;;;;;;;;;16.40;99.90;;;;;;5076683;28;20011;-68
2022/07/22 05:53:25;;;;;;;;;;;16.60;99.90;;;;;;5079887;28;20377;-68
2022/07/22 05:55:53;;;;;;;;;;;16.60;99.90;;;;;;5085052;28;19929;-68
2022/07/22 05:58:19;;;;;;;;;;;16.70;99.90;;;;;;5082454;28;20007;-68
2022/07/22 06:00:46;;;;;;;;;;;16.70;99.90;;;;;;5084412;28;20027;-68
2022/07/22 06:03:13;;;;;;;;;;;16.90;99.90;;;;;;5085195;28;20463;-68
2022/07/22 06:05:40;;;;;;;;;;;17.10;99.90;;;;;;5073696;28;19968;-69
2022/07/22 06:08:06;;;;;;;;;;;18.30;99.90;;;;;;5081164;28;19934;-69
2022/07/22 06:10:33;;;;;;;;;;;18.70;99.90;;;;;;5087848;28;19967;-69
2022/07/22 06:13:01;;;;;;;;;;;18.20;99.90;;;;;;5081188;28;20139;-70
2022/07/22 06:15:28;;;;;;;;;;;18.50;99.90;;;;;;5091972;28;19931;-69
2022/07/22 06:17:55;;;;;;;;;;;18.40;99.90;;;;;;5089023;28;20196;-69
2022/07/22 06:20:21;;;;;;;;;;;18.10;99.90;;;;;;5073512;28;19972;-68
2022/07/22 06:22:48;;;;;;;;;;;18.90;99.90;;;;;;5074892;28;20384;-70
2022/07/22 06:25:15;;;;;;;;;;;19.90;99.90;;;;;;5074177;28;19931;-69
2022/07/22 06:27:42;;;;;;;;;;;20.10;99.90;;;;;;5075806;28;21176;-69
2022/07/22 06:30:10;;;;;;;;;;;20.50;99.90;;;;;;5075887;28;20377;-70
2022/07/22 06:32:37;;;;;;;;;;;20.70;99.90;;;;;;5077085;28;20375;-69
2022/07/22 06:35:04;;;;;;;;;;;20.80;99.90;;;;;;5076070;28;19967;-68
2022/07/22 06:37:31;;;;;;;;;;;20.60;99.90;;;;;;5074023;28;20015;-69
2022/07/22 06:39:58;;;;;;;;;;;20.10;99.90;;;;;;5086901;28;20384;-70
2022/07/22 06:42:24;;;;;;;;;;;19.60;99.90;;;;;;5073117;28;20007;-69
2022/07/22 06:44:51;;;;;;;;;;;19.30;99.90;;;;;;5076451;28;19929;-69
2022/07/22 06:47:19;;;;;;;;;;;19.70;99.90;;;;;;5078362;28;20010;-69
2022/07/22 06:49:46;;;;;;;;;;;19.10;99.90;;;;;;5075574;28;20027;-68
2022/07/22 06:52:13;;;;;;;;;;;18.70;99.90;;;;;;5081602;28;19928;-68
2022/07/22 06:54:39;;;;;;;;;;;19.10;99.90;;;;;;5075874;28;20023;-75
2022/07/22 06:57:06;;;;;;;;;;;20.90;99.90;;;;;;5086716;28;20339;-74
2022/07/22 06:59:33;;;;;;;;;;;22.30;99.90;;;;;;5091523;28;20308;-72
2022/07/22 07:01:59;;;;;;;;;;;22.70;99.90;;;;;;5093993;28;19924;-73
2022/07/22 07:04:28;;;;;;;;;;;24.30;97.40;;;;;;5087174;28;20014;-72
2022/07/22 07:06:54;;;;;;;;;;;24.70;92.70;;;;;;5073599;28;19972;-72
2022/07/22 07:09:21;;;;;;;;;;;26.30;87.90;;;;;;5074832;28;19924;-72
2022/07/22 07:11:48;;;;;;;;;;;27.50;73.20;;;;;;5075399;28;19958;-73
2022/07/22 07:14:14;;;;;;;;;;;26.60;66.50;;;;;;5085644;28;20014;-73
2022/07/22 07:16:41;;;;;;;;;;;24.70;66.50;;;;;;5073014;28;19924;-73
2022/07/22 07:19:08;;;;;;;;;;;23.20;83.90;;;;;;5087063;28;20026;-73
2022/07/22 07:21:36;;;;;;;;;;;21.60;90.60;;;;;;5091263;28;19959;-73
2022/07/22 07:24:02;;;;;;;;;;;21.40;93.30;;;;;;5078454;28;19946;-73
2022/07/22 07:26:29;;;;;;;;;;;20.90;95.40;;;;;;5080059;28;19931;-73
2022/07/22 07:28:56;;;;;;;;;;;20.90;95.50;;;;;;5076629;28;20022;-74
2022/07/22 07:31:23;;;;;;;;;;;20.50;97.40;;;;;;5079597;28;20624;-73
2022/07/22 07:33:50;;;;;;;;;;;19.50;99.90;;;;;;5075985;28;20383;-74
2022/07/22 07:36:17;;;;;;;;;;;19.90;99.90;;;;;;5075795;28;19925;-73
2022/07/22 07:38:45;;;;;;;;;;;19.90;99.90;;;;;;5072753;28;20921;-74
2022/07/22 07:41:12;;;;;;;;;;;19.90;99.90;;;;;;5074119;28;20391;-73
2022/07/22 07:43:39;;;;;;;;;;;19.40;99.90;;;;;;5071824;28;20722;-73
2022/07/22 07:46:05;;;;;;;;;;;19.10;99.90;;;;;;5076481;28;20014;-73
2022/07/22 07:48:32;;;;;;;;;;;19.00;99.90;;;;;;5077642;28;20027;-73
2022/07/22 07:50:59;;;;;;;;;;;19.10;99.90;;;;;;5073781;28;19924;-74
2022/07/22 07:53:26;;;;;;;;;;;19.10;99.90;;;;;;5070943;28;20032;-74
2022/07/22 07:55:54;;;;;;;;;;;19.10;99.90;;;;;;5086702;28;20291;-74
2022/07/22 07:58:20;;;;;;;;;;;19.50;99.90;;;;;;5078646;28;20398;-74
2022/07/22 08:00:47;;;;;;;;;;;19.20;99.90;;;;;;5071911;28;19956;-73
2022/07/22 08:03:14;;;;;;;;;;;19.10;99.90;;;;;;5076029;28;20015;-73
2022/07/22 08:05:41;;;;;;;;;;;19.30;99.90;;;;;;5071099;28;20388;-76
2022/07/22 08:08:08;;;;;;;;;;;19.90;99.90;;;;;;5071332;28;19928;-73
2022/07/22 08:10:35;;;;;;;;;;;20.20;99.90;;;;;;5071549;28;20451;-74
2022/07/22 08:13:03;;;;;;;;;;;20.50;99.90;;;;;;5071238;28;20368;-75
2022/07/22 08:15:32;;;;;;;;;;;19.70;99.90;;;;;;5088131;28;19931;-71
2022/07/22 08:17:59;;;;;;;;;;;19.20;99.90;;;;;;5075917;28;19959;-73
2022/07/22 08:20:26;;;;;;;;;;;19.10;99.90;;;;;;5070982;28;19928;-74
2022/07/22 08:22:55;;;;;;;;;;;19.60;99.90;;;;;;5075780;28;20023;-74
2022/07/22 08:25:22;;;;;;;;;;;19.50;99.90;;;;;;5075290;28;19924;-73
2022/07/22 08:27:49;;;;;;;;;;;19.00;99.90;;;;;;5074238;28;20177;-73
2022/07/22 08:30:17;;;;;;;;;;;18.80;99.90;;;;;;5074263;28;20286;-73
2022/07/22 08:32:44;;;;;;;;;;;19.10;99.90;;;;;;5074599;28;19936;-74
2022/07/22 08:35:11;;;;;;;;;;;19.90;99.90;;;;;;5075415;28;19994;-73
2022/07/22 08:37:38;;;;;;;;;;;21.40;99.80;;;;;;5075590;28;19955;-74
2022/07/22 08:40:06;;;;;;;;;;;22.20;96.30;;;;;;5071036;28;19928;-73
2022/07/22 08:42:34;;;;;;;;;;;21.20;96.40;;;;;;5072531;28;20401;-74
2022/07/22 08:45:00;;;;;;;;;;;20.60;98.30;;;;;;5079553;28;20339;-74
2022/07/22 08:47:29;;;;;;;;;;;20.20;98.00;;;;;;5073401;28;20011;-73
2022/07/22 08:49:55;;;;;;;;;;;19.80;99.90;;;;;;5081690;28;19924;-74
2022/07/22 08:52:24;;;;;;;;;;;19.60;99.90;;;;;;5073622;28;19977;-73
2022/07/22 08:54:51;;;;;;;;;;;19.50;99.90;;;;;;5078983;28;19928;-74
2022/07/22 08:57:18;;;;;;;;;;;19.90;99.70;;;;;;5074840;28;19931;-74
2022/07/22 08:59:51;;;;;;;;;;;19.90;99.90;;;;;;5085501;28;19924;-73
2022/07/22 09:02:19;;;;;;;;;;;19.70;99.50;;;;;;5076322;28;19931;-74
2022/07/22 09:04:54;;;;;;;;;;;20.50;99.10;;;;;;5070652;28;19932;-75
2022/07/22 09:07:28;;;;;;;;;;;21.30;97.30;;;;;;5070951;28;20007;-74
2022/07/22 09:09:56;;;;;;;;;;;22.10;95.00;;;;;;5084677;28;20387;-75
2022/07/22 09:12:23;;;;;;;;;;;20.90;96.20;;;;;;5081061;28;19947;-76
2022/07/22 09:14:52;;;;;;;;;;;20.50;95.70;;;;;;5076424;28;19947;-76
2022/07/22 09:17:25;;;;;;;;;;;20.60;97.00;;;;;;5081255;28;19969;-77
2022/07/22 09:19:54;;;;;;;;;;;20.40;96.20;;;;;;5078124;28;19924;-77
2022/07/22 09:22:35;;;;;;;;;;;20.70;96.40;;;;;;5091124;28;19931;-75
2022/07/22 09:25:16;;;;;;;;;;;21.20;95.20;;;;;;5087435;28;19931;-77
2022/07/22 09:27:43;;;;;;;;;;;20.50;96.30;;;;;;5088128;28;19932;-76
2022/07/22 09:30:12;;;;;;;;;;;20.40;96.70;;;;;;5086923;28;20383;-74
2022/07/22 09:32:40;;;;;;;;;;;20.00;98.00;;;;;;5082083;28;19969;-76
2022/07/22 09:35:10;;;;;;;;;;;19.80;98.40;;;;;;5077732;28;19931;-77
2022/07/22 09:37:37;;;;;;;;;;;20.00;97.90;;;;;;5074518;28;19931;-78
2022/07/22 09:40:13;;;;;;;;;;;20.50;97.20;;;;;;5078533;28;20171;-77
2022/07/22 09:42:48;;;;;;;;;;;20.80;97.30;;;;;;5078350;28;20402;-76
2022/07/22 09:45:15;;;;;;;;;;;22.20;94.50;;;;;;5086519;28;19924;-77
2022/07/22 09:47:42;;;;;;;;;;;22.70;92.50;;;;;;5078498;28;19970;-77
2022/07/22 09:50:17;;;;;;;;;;;23.00;91.50;;;;;;5085619;28;20014;-76
2022/07/22 09:52:45;;;;;;;;;;;23.20;90.10;;;;;;5082033;28;19935;-76
2022/07/22 09:55:11;;;;;;;;;;;22.00;91.40;;;;;;5085257;28;19924;-77
2022/07/22 09:57:38;;;;;;;;;;;21.90;91.50;;;;;;5077413;28;19948;-74
2022/07/22 10:00:07;;;;;;;;;;;22.60;90.10;;;;;;5084814;28;20011;-77
2022/07/22 10:02:34;;;;;;;;;;;23.50;86.30;;;;;;5079641;28;19924;-74
2022/07/22 10:05:01;;;;;;;;;;;23.80;83.10;;;;;;5078221;28;20014;-77
2022/07/22 10:07:29;;;;;;;;;;;24.00;81.90;;;;;;5074291;28;20009;-77
2022/07/22 10:09:56;;;;;;;;;;;24.30;77.40;;;;;;5080181;28;20412;-76
2022/07/22 10:12:23;;;;;;;;;;;22.40;81.50;;;;;;5079104;28;20391;-76
2022/07/22 10:14:49;;;;;;;;;;;21.50;89.20;;;;;;5080129;28;20251;-76
2022/07/22 10:17:16;;;;;;;;;;;21.80;88.50;;;;;;5078626;28;20004;-76
2022/07/22 10:19:43;;;;;;;;;;;21.90;87.90;;;;;;5081744;28;20015;-76
2022/07/22 10:22:25;;;;;;;;;;;22.20;87.50;;;;;;5072221;28;20430;-74
2022/07/22 10:25:01;;;;;;;;;;;21.90;87.60;;;;;;5087022;28;19967;-76
2022/07/22 10:27:43;;;;;;;;;;;22.50;87.40;;;;;;5081058;28;20505;-76
2022/07/22 10:30:10;;;;;;;;;;;22.90;86.20;;;;;;5077620;28;19959;-77
2022/07/22 10:32:37;;;;;;;;;;;22.90;84.30;;;;;;5076342;28;20417;-76
2022/07/22 10:35:26;;;;;;;;;;;23.20;83.80;;;;;;5081326;28;20011;-76
2022/07/22 10:37:55;;;;;;;;;;;21.30;89.50;;;;;;5084440;28;19932;-77
2022/07/22 10:40:24;;;;;;;;;;;21.20;90.60;;;;;;5081441;28;19924;-75
2022/07/22 10:43:07;;;;;;;;;;;20.80;91.90;;;;;;5079954;28;19924;-75
2022/07/22 10:45:35;;;;;;;;;;;21.00;91.90;;;;;;5078055;28;19946;-76
2022/07/22 10:48:05;;;;;;;;;;;21.10;90.80;;;;;;5081491;28;19925;-75
2022/07/22 10:50:42;;;;;;;;;;;21.20;90.30;;;;;;5079488;28;19932;-76
2022/07/22 10:53:09;;;;;;;;;;;21.60;90.90;;;;;;5080828;28;19933;-75
2022/07/22 10:55:38;;;;;;;;;;;21.50;90.10;;;;;;5084218;28;20015;-77
2022/07/22 10:58:24;;;;;;;;;;;21.70;88.90;;;;;;5083490;28;19935;-76
2022/07/22 11:00:50;;;;;;;;;;;21.70;85.70;;;;;;5075739;28;19944;-75
2022/07/22 11:03:24;;;;;;;;;;;21.20;90.70;;;;;;5074970;28;19975;-77
2022/07/22 11:05:51;;;;;;;;;;;21.40;91.50;;;;;;5073446;28;19974;-75
2022/07/22 11:08:18;;;;;;;;;;;21.90;89.60;;;;;;5074503;28;19931;-76
2022/07/22 11:10:49;;;;;;;;;;;21.70;89.60;;;;;;5078485;28;20380;-76
2022/07/22 11:13:31;;;;;;;;;;;21.40;91.60;;;;;;5079610;28;19928;-76
2022/07/22 11:16:13;;;;;;;;;;;21.80;90.70;;;;;;5076346;28;19970;-76
2022/07/22 11:18:50;;;;;;;;;;;22.00;90.50;;;;;;5075742;28;19924;-76
2022/07/22 11:21:17;;;;;;;;;;;22.60;90.10;;;;;;5071346;28;20452;-76
2022/07/22 11:23:45;;;;;;;;;;;21.80;90.10;;;;;;5074672;28;19978;-75
2022/07/22 11:26:14;;;;;;;;;;;22.00;90.90;;;;;;5079615;28;19931;-75
2022/07/22 11:28:41;;;;;;;;;;;22.00;91.50;;;;;;5071712;28;20022;-75
2022/07/22 11:31:07;;;;;;;;;;;21.80;91.00;;;;;;5075222;28;19971;-75
2022/07/22 11:33:34;;;;;;;;;;;21.70;90.50;;;;;;5075955;28;20366;-76
2022/07/22 11:36:02;;;;;;;;;;;21.70;91.70;;;;;;5073205;28;20017;-71
2022/07/22 11:38:40;;;;;;;;;;;21.90;91.20;;;;;;5076337;28;19924;-73
2022/07/22 11:41:07;;;;;;;;;;;21.50;90.00;;;;;;5081713;28;19932;-72
2022/07/22 11:43:39;;;;;;;;;;;21.90;91.30;;;;;;5076618;28;19925;-72
2022/07/22 11:46:06;;;;;;;;;;;21.90;92.70;;;;;;5071591;28;19967;-72
2022/07/22 11:48:33;;;;;;;;;;;21.40;91.80;;;;;;5081538;28;20454;-73
2022/07/22 11:51:00;;;;;;;;;;;21.80;92.20;;;;;;5082708;28;20027;-72
2022/07/22 11:53:27;;;;;;;;;;;21.70;90.90;;;;;;5081468;28;19971;-73
2022/07/22 11:55:57;;;;;;;;;;;21.50;91.10;;;;;;5078553;28;20220;-73
2022/07/22 11:58:34;;;;;;;;;;;21.70;91.60;;;;;;5077041;28;19924;-73
2022/07/22 12:01:02;;;;;;;;;;;21.90;91.00;;;;;;5073866;28;19959;-73
2022/07/22 12:03:29;;;;;;;;;;;22.30;90.60;;;;;;5081542;28;19924;-73
2022/07/22 12:05:56;;;;;;;;;;;22.00;91.80;;;;;;5071641;28;19932;-72
2022/07/22 12:08:22;;;;;;;;;;;21.80;91.00;;;;;;5074667;28;19952;-72
2022/07/22 12:10:50;;;;;;;;;;;21.80;91.10;;;;;;5078944;28;19928;-72
2022/07/22 12:13:17;;;;;;;;;;;22.00;91.10;;;;;;5077310;28;19930;-73
2022/07/22 12:15:45;;;;;;;;;;;21.90;90.70;;;;;;5078521;28;19948;-72
2022/07/22 12:18:16;;;;;;;;;;;21.90;90.40;;;;;;5080061;28;19932;-72
2022/07/22 12:20:45;;;;;;;;;;;21.60;89.40;;;;;;5074750;28;21352;-73
2022/07/22 12:23:12;;;;;;;;;;;22.10;89.90;;;;;;5069958;28;20017;-73
2022/07/22 12:25:52;;;;;;;;;;;21.80;90.20;;;;;;5090577;28;19924;-74
2022/07/22 12:28:19;;;;;;;;;;;21.90;90.60;;;;;;5079284;28;19947;-74
2022/07/22 12:30:46;;;;;;;;;;;22.00;90.20;;;;;;5083609;28;20024;-74
2022/07/22 12:33:18;;;;;;;;;;;22.30;89.80;;;;;;5073325;28;20475;-74
2022/07/22 12:35:45;;;;;;;;;;;22.50;89.00;;;;;;5076749;28;19931;-73
2022/07/22 12:38:12;;;;;;;;;;;22.60;87.10;;;;;;5078042;28;19932;-73
2022/07/22 12:40:39;;;;;;;;;;;22.30;86.60;;;;;;5073426;28;19932;-74
2022/07/22 12:43:07;;;;;;;;;;;21.90;88.90;;;;;;5076502;28;20011;-73
2022/07/22 12:45:34;;;;;;;;;;;22.20;90.30;;;;;;5074490;28;19978;-73
2022/07/22 12:48:07;;;;;;;;;;;21.90;89.70;;;;;;5079652;28;19924;-73
2022/07/22 12:50:36;;;;;;;;;;;21.80;90.10;;;;;;5071249;28;19985;-73
2022/07/22 12:53:05;;;;;;;;;;;21.90;89.80;;;;;;5071426;28;19978;-73
2022/07/22 12:55:33;;;;;;;;;;;22.40;90.00;;;;;;5070867;28;19979;-73
2022/07/22 12:58:00;;;;;;;;;;;22.10;89.60;;;;;;5072966;28;19924;-73
2022/07/22 13:00:28;;;;;;;;;;;22.20;90.00;;;;;;5072195;28;19974;-73
2022/07/22 13:02:55;;;;;;;;;;;22.20;89.40;;;;;;5075963;28;19924;-74
2022/07/22 13:05:23;;;;;;;;;;;22.30;89.40;;;;;;5071830;28;19930;-73
2022/07/22 13:07:52;;;;;;;;;;;22.10;89.40;;;;;;5073669;28;19924;-73
2022/07/22 13:10:20;;;;;;;;;;;22.30;88.80;;;;;;5069107;28;20034;-74
2022/07/22 13:12:46;;;;;;;;;;;22.00;90.40;;;;;;5072274;28;19974;-72
2022/07/22 13:15:13;;;;;;;;;;;21.90;89.70;;;;;;5077078;28;20016;-73
2022/07/22 13:17:41;;;;;;;;;;;22.10;90.50;;;;;;5071249;28;19968;-73
2022/07/22 13:20:08;;;;;;;;;;;22.30;89.70;;;;;;5070720;28;19964;-73
2022/07/22 13:22:35;;;;;;;;;;;22.20;90.40;;;;;;5072486;28;19928;-73
2022/07/22 13:25:03;;;;;;;;;;;22.20;90.30;;;;;;5082140;28;19965;-74
2022/07/22 13:27:30;;;;;;;;;;;22.30;90.60;;;;;;5069615;28;20015;-75
2022/07/22 13:29:58;;;;;;;;;;;22.00;88.80;;;;;;5079627;28;19981;-75
2022/07/22 13:32:24;;;;;;;;;;;22.10;89.80;;;;;;5079922;28;19925;-75
2022/07/22 13:34:51;;;;;;;;;;;22.20;88.60;;;;;;5086248;28;19932;-74
2022/07/22 13:37:18;;;;;;;;;;;22.00;88.40;;;;;;5072381;28;19932;-72
2022/07/22 13:39:45;;;;;;;;;;;22.20;87.40;;;;;;5068885;28;20016;-74
2022/07/22 13:42:13;;;;;;;;;;;22.40;88.50;;;;;;5069968;28;20435;-75
2022/07/22 13:44:40;;;;;;;;;;;22.70;87.30;;;;;;5071449;28;19976;-73
2022/07/22 13:47:07;;;;;;;;;;;22.90;90.40;;;;;;5070911;28;19924;-72
2022/07/22 13:49:33;;;;;;;;;;;22.50;87.00;;;;;;5077849;28;19963;-75
2022/07/22 13:52:01;;;;;;;;;;;22.40;88.40;;;;;;5071177;28;20023;-74
2022/07/22 13:54:28;;;;;;;;;;;22.10;88.60;;;;;;5079802;28;19924;-72
2022/07/22 13:56:55;;;;;;;;;;;22.20;89.70;;;;;;5070153;28;19924;-76
2022/07/22 13:59:24;;;;;;;;;;;22.20;89.20;;;;;;5069753;28;19924;-76
2022/07/22 14:01:51;;;;;;;;;;;22.20;88.30;;;;;;5075081;28;19932;-76
2022/07/22 14:04:17;;;;;;;;;;;22.30;88.80;;;;;;5079565;28;19968;-75
2022/07/22 14:06:44;;;;;;;;;;;22.30;89.60;;;;;;5088085;28;19967;-77
2022/07/22 14:09:11;;;;;;;;;;;22.50;89.20;;;;;;5076425;28;19967;-75
2022/07/22 14:11:37;;;;;;;;;;;22.20;89.90;;;;;;5075045;28;19928;-74
2022/07/22 14:14:06;;;;;;;;;;;22.10;90.30;;;;;;5084521;28;19928;-75
2022/07/22 14:16:34;;;;;;;;;;;22.20;90.60;;;;;;5074741;28;19939;-74
2022/07/22 14:19:01;;;;;;;;;;;22.40;90.00;;;;;;5093158;28;20560;-74